FKYS/NSI METAR and TAF weather

Enter ICAO airport designator
Station Type Date Time Source
FKYS METAR 2022/01/26 14:00 UTC NOAA

FKYS 261400Z 01004KT 330V100 6000 FEW020 32/07 Q1012 TEMPO 4000 HZ


Station Type Date Time Source
FKYS Decoded METAR 2022/01/26 14:00 UTC NOAA

Yaounde, Cameroon (FKYS) 03-50N 011-31E 760M
Jan 26, 2022 - 09:00 AM EST / 2022.01.26 1400 UTC
Wind: from the N (010 degrees) at 5 MPH (4 KT) (direction variable):0
Visibility: 3 mile(s):0
Sky conditions: mostly clear
Temperature: 89 F (32 C)
Dew Point: 44 F (7 C)
Relative Humidity: 21%
Pressure (altimeter): 29.88 in. Hg (1012 hPa)
ob: FKYS 261400Z 01004KT 330V100 6000 FEW020 32/07 Q1012 TEMPO 4000 HZ
cycle: 14

Station Type Date Time Source
FKYS TAF 2022/01/26 12:33 UTC NOAA

TAF FKYS 261100Z 2612/2712 33004KT 6000 FEW020
BECMG 2621/2623 BKN006
TEMPO 2704/2709 2000 BR PROB30 2706/2708 0800 FG
BECMG 2708/2710 BKN016

Example: see airport list